AirNav   Air Wisconsin Up To $57,000 Bonus
 
 831 users online  

WV20 Wetzel County Hospital Heliport
New Martinsville, West Virginia, USA

GOING TO NEW MARTINSVILLE?


FAA INFORMATION EFFECTIVE 26 MARCH 2020

Location

FAA Identifier: WV20
Lat/Long: 39-40-52.2800N 080-50-55.3100W
39-40.871333N 080-50.921833W
39.6811889,-80.8486972
(estimated)
Elevation: 689 ft. / 210 m (estimated)
Variation: 07W (1990)
From city: 3 miles N of NEW MARTINSVILLE, WV
Time zone: UTC -4 (UTC -5 during Standard Time)
Zip code: 26624

Heliport Operations

Heliport use: Private use, MEDICAL USE ONLY.
Activation date: 03/1992
Control tower: no
ARTCC: CLEVELAND CENTER
FSS: ELKINS FLIGHT SERVICE STATION [703-724-4288]
Attendance: CONTINUOUS
Wind indicator: lighted
Segmented circle: no
Lights: FOR PERIMETER LGTS CALL 304-455-8100.
Beacon: white-green-yellow (heliport)
FOR ROTG BCN CALL 304-455-8100.

Heliport Communications

WX AWOS-3 at MPG (13 nm NE): 119.05 (304-845-2959)

Nearby radio navigation aids

VOR radial/distance  VOR name  Freq  Var
AIRr191/20.2BELLAIRE VOR/DME117.1007W
JPUr062/28.3PARKERSBURG VOR/DME108.6003W
HLGr207/37.0WHEELING VOR/DME112.2007W
CKBr318/37.2CLARKSBURG VOR/DME112.6004W

 
NDB name  Hdg/Dist  Freq  Var  ID
CADIZ174/34.223907WCFX -.-. ..-. -..-

Heliport Services

Runway Information

Helipad H1

Dimensions: 20 x 20 ft. / 6 x 6 m
Surface: concrete
Runway edge lights: PERI
Latitude: 39-40.871333N
Longitude: 080-50.921833W
Elevation: 689.0 ft.
Traffic pattern: leftleft

Heliport Ownership and Management from official FAA records

Ownership: Publicly-owned
Owner: WETZEL COUNTY HOSPITAL ASSOCIATION
3 EAST BENJAMIN DRIVE
NEW MARTINSVILLE, WV 26155
Phone 304-455-8000
Manager: TOM LANGSDORF
3 EAST BENJAMIN DRIVE
NEW MARTINSVILLE, WV 26155
Phone 304-455-8000
MICHAEL CONNERS 304-551-4083

Heliport Operational Statistics

Aircraft based on the field: 1
Helicopters: 1
    

Additional Remarks

A52-H1 BLDG 175 FT WEST OF PAD; 20 FT PLINES 300 FT WEST OF PAD; 10 TREES 300 FT WEST OF PAD.
HELIPAD OPERATOR AIR EVAC LIFETEAM (BASE78)
FOR CD CTC CLARKSBURG APCH AT 304-842-6676, WHEN APCH CLSD CTC CLEVELAND ARTCC AT 440-774-0226.

Instrument Procedures

There are no published instrument procedures at WV20.

Some nearby airports with instrument procedures:

KMPG - Marshall County Airport (13 nm NE)
4G5 - Monroe County Airport (13 nm NW)
2P7 - Alderman Airport (23 nm N)
6G5 - Barnesville-Bradfield Airport (25 nm NW)
KHLG - Wheeling Ohio County Airport (31 nm N)
 
Loc | Ops | Rwys | IFR | FBO | Links
Com | Nav | Svcs | Stats | Notes
Area around WV20 (Wetzel County Hospital Heliport)
 
Road maps at: MapQuest Bing Google
 
Aerial photo
No photo
 
Sectional chart

 
Airport distance calculator
Flying to Wetzel County Hospital Heliport? Find the distance to fly.

From to WV20

Sunrise and sunset
Times for 04-Apr-2020
 Local
(UTC-4)
 Zulu
(UTC)
Morning civil twilight06:3510:35
Sunrise07:0211:02
Sunset19:5023:50
Evening civil twilight20:1700:17

Current date and time
Zulu (UTC)  04-Apr-2020 22:12:55
Local (UTC-4)  04-Apr-2020 18:12:55
 
METAR
KHLG 
31nm N 
042153Z 26007KT 10SM CLR 18/01 A2997 RMK AO2 SLP153 T01830011
KPKB 
33nm SW 
042153Z 34007KT 10SM CLR 20/02 A2995 RMK AO2 SLPNO T02000022 $
KCKB 
37nm SE 
042153Z 10SM CLR 21/01 A2996 RMK AO2 SLP140 T02060011
KAFJ 
37nm NE 
042156Z AUTO VRB03KT 10SM CLR 17/05 A3000 RMK AO2 SLP163 T01720050 PWINO
KCDI 
38nm NW 
042155Z AUTO 28005KT 10SM CLR 20/03 A2996 RMK AO2 T02010026
KMGW 
43nm E 
042153Z 04007KT 10SM CLR 16/04 A2999 RMK AO2 SLP156 T01610044
KW22 
49nm SE 
042155Z AUTO VRB04G12KT 10SM CLR 19/01 A2997 RMK AO2
TAF
KHLG 
31nm N 
041722Z 0418/0518 31005KT P6SM FEW040 FM050000 VRB03KT P6SM BKN080 FM051400 VRB04KT P6SM VCSH BKN030
KPKB 
33nm SW 
041734Z 0418/0518 03004KT P6SM SKC FM050900 00000KT P6SM OVC060 FM051200 00000KT P6SM BKN045 FM051300 00000KT P6SM OVC045 FM051500 00000KT P6SM VCSH BKN027
KCKB 
37nm SE 
041734Z 0418/0518 00000KT P6SM FEW040 FM050400 00000KT P6SM BKN200 FM050500 00000KT P6SM BKN100 FM051500 00000KT P6SM VCSH BKN045
NOTAMs
Click for the latest NOTAMs
NOTAMs are issued by the DoD/FAA and will open in a separate window not controlled by AirNav.

 

 
 

Would you like to see your business listed on this page?

 If your business provides an interesting product or service to pilots, flight crews, aircraft, or users of the Wetzel County Hospital Heliport, you should consider listing it here.  To start the listing process, click on the button below
 
Add a business
 

Other Pages about Wetzel County Hospital Heliport

Update a link
 
Copyright © AirNav, LLC. All rights reserved. Privacy Policy  Contact